Time;durP1;ratioP1;P1;durP2;ratioP2;P2;SDS_P1;SDS_P2;PMS_P1;PMS_P2;Temp;Humidity;BMP_temperature;BMP_pressure;BME280_temperature;BME280_humidity;BME280_pressure;Samples;Min_cycle;Max_cycle;Signal;HPM_P1;HPM_P2
2021/05/09 00:00:53;;;;;;;6.57;2.83;;;12.40;47.20;;;;;;5114577;27;20384;-74
2021/05/09 00:03:19;;;;;;;3.85;2.50;;;12.40;47.20;;;;;;5134203;27;20094;-73
2021/05/09 00:05:45;;;;;;;6.57;3.10;;;12.30;47.50;;;;;;5134230;27;20058;-74
2021/05/09 00:08:11;;;;;;;3.97;2.28;;;12.30;47.50;;;;;;5134188;27;20057;-74
2021/05/09 00:10:37;;;;;;;3.65;2.20;;;12.30;47.30;;;;;;5134238;27;20482;-74
2021/05/09 00:13:02;;;;;;;6.82;2.92;;;12.30;47.40;;;;;;5115621;27;20038;-76
2021/05/09 00:15:28;;;;;;;5.13;3.05;;;12.20;48.30;;;;;;5115580;27;20023;-74
2021/05/09 00:17:54;;;;;;;4.72;2.80;;;12.20;48.50;;;;;;5133520;27;20051;-73
2021/05/09 00:20:20;;;;;;;4.32;2.90;;;12.20;48.10;;;;;;5113495;28;20020;-74
2021/05/09 00:22:46;;;;;;;3.83;2.22;;;12.20;48.10;;;;;;5113380;28;20094;-74
2021/05/09 00:25:12;;;;;;;4.38;2.75;;;12.20;48.10;;;;;;5113340;28;20027;-74
2021/05/09 00:27:40;;;;;;;2.97;2.17;;;12.10;48.00;;;;;;5113382;28;20119;-74
2021/05/09 00:30:07;;;;;;;4.65;2.30;;;12.10;48.20;;;;;;5113388;28;20500;-73
2021/05/09 00:32:33;;;;;;;3.50;2.47;;;12.10;48.30;;;;;;5113022;28;20024;-75
2021/05/09 00:34:59;;;;;;;3.78;1.75;;;12.00;48.20;;;;;;5114213;28;20381;-74
2021/05/09 00:37:24;;;;;;;2.63;2.10;;;12.00;48.20;;;;;;5095058;28;20168;-74
2021/05/09 00:39:50;;;;;;;4.05;2.65;;;12.00;48.50;;;;;;5113274;28;20486;-74
2021/05/09 00:42:17;;;;;;;4.10;2.35;;;12.00;48.70;;;;;;5113261;28;20095;-74
2021/05/09 00:44:43;;;;;;;3.53;2.00;;;11.90;48.50;;;;;;5113326;28;20028;-74
2021/05/09 00:47:12;;;;;;;3.58;2.08;;;11.90;49.10;;;;;;5113153;28;20544;-75
2021/05/09 00:49:39;;;;;;;3.92;1.67;;;11.90;48.80;;;;;;5128078;28;20088;-75
2021/05/09 00:52:12;;;;;;;5.03;2.70;;;11.90;48.70;;;;;;5133683;28;20039;-76
2021/05/09 00:54:44;;;;;;;4.45;2.17;;;11.80;48.90;;;;;;5133588;28;20380;-75
2021/05/09 00:57:12;;;;;;;5.20;1.77;;;11.80;49.00;;;;;;5133698;28;20088;-74
2021/05/09 00:59:39;;;;;;;4.47;2.30;;;11.80;49.00;;;;;;5133396;28;20015;-75
2021/05/09 01:02:06;;;;;;;3.05;2.10;;;11.80;49.20;;;;;;5113550;28;20587;-75
2021/05/09 01:04:32;;;;;;;3.75;2.20;;;11.70;49.20;;;;;;5115058;28;20056;-74
2021/05/09 01:06:58;;;;;;;3.63;2.00;;;11.70;49.30;;;;;;5133415;28;20027;-74
2021/05/09 01:09:24;;;;;;;4.82;2.30;;;11.70;49.20;;;;;;5133535;28;20027;-75
2021/05/09 01:11:50;;;;;;;6.13;2.42;;;11.70;49.30;;;;;;5133494;28;20117;-74
2021/05/09 01:14:15;;;;;;;4.65;2.22;;;11.60;49.40;;;;;;5133392;28;20547;-75
2021/05/09 01:16:43;;;;;;;4.78;1.90;;;11.60;49.40;;;;;;5114718;28;20043;-74
2021/05/09 01:19:09;;;;;;;4.22;2.15;;;11.60;49.50;;;;;;5122755;28;20019;-75
2021/05/09 01:21:35;;;;;;;3.85;2.20;;;11.60;49.50;;;;;;5112798;28;20020;-74
2021/05/09 01:24:00;;;;;;;4.22;2.50;;;11.50;49.80;;;;;;5094501;28;20027;-74
2021/05/09 01:26:26;;;;;;;3.35;2.13;;;11.50;50.40;;;;;;5112778;28;20103;-75
2021/05/09 01:28:52;;;;;;;2.85;2.00;;;11.50;50.40;;;;;;5094482;28;20548;-74
2021/05/09 01:31:18;;;;;;;2.90;2.13;;;11.50;50.40;;;;;;5094465;28;20034;-74
2021/05/09 01:33:44;;;;;;;5.72;2.28;;;11.50;50.20;;;;;;5094407;28;20027;-75
2021/05/09 01:36:10;;;;;;;2.72;1.92;;;11.50;51.30;;;;;;5094399;28;20066;-75
2021/05/09 01:38:36;;;;;;;3.95;2.35;;;11.50;51.40;;;;;;5112659;28;20030;-74
2021/05/09 01:41:01;;;;;;;2.15;1.55;;;11.50;51.10;;;;;;5112736;28;20381;-75
2021/05/09 01:43:27;;;;;;;2.28;1.60;;;11.50;50.90;;;;;;5112676;28;20485;-75
2021/05/09 01:45:53;;;;;;;2.90;2.03;;;11.40;50.90;;;;;;5115390;28;20390;-74
2021/05/09 01:48:19;;;;;;;2.30;1.80;;;11.40;50.70;;;;;;5119063;27;20023;-75
2021/05/09 01:50:44;;;;;;;2.40;1.90;;;11.40;50.90;;;;;;5136797;27;20023;-75
2021/05/09 01:53:10;;;;;;;2.47;1.80;;;11.40;50.80;;;;;;5136457;27;20027;-74
2021/05/09 01:55:36;;;;;;;2.60;2.05;;;11.40;51.00;;;;;;5136513;27;20068;-75
2021/05/09 01:58:02;;;;;;;7.95;2.05;;;11.40;50.90;;;;;;5117983;27;20015;-74
2021/05/09 02:00:27;;;;;;;4.00;1.60;;;11.30;50.80;;;;;;5118007;27;20023;-74
2021/05/09 02:02:53;;;;;;;3.53;1.50;;;11.30;50.90;;;;;;5117918;27;20020;-74
2021/05/09 02:05:19;;;;;;;2.67;2.15;;;11.30;50.90;;;;;;5136379;27;20418;-74
2021/05/09 02:07:45;;;;;;;4.07;1.85;;;11.30;51.10;;;;;;5136397;27;20019;-74
2021/05/09 02:10:11;;;;;;;2.85;1.90;;;11.20;51.00;;;;;;5117963;27;20373;-74
2021/05/09 02:12:37;;;;;;;2.65;1.70;;;11.20;50.90;;;;;;5136177;27;20035;-75
2021/05/09 02:15:07;;;;;;;3.80;2.08;;;11.20;50.80;;;;;;5135343;27;20379;-74
2021/05/09 02:17:33;;;;;;;2.08;1.50;;;11.20;50.80;;;;;;5112622;28;20396;-75
2021/05/09 02:19:59;;;;;;;4.53;1.98;;;11.20;51.20;;;;;;5095932;28;20267;-75
2021/05/09 02:22:25;;;;;;;6.28;2.10;;;11.20;51.20;;;;;;5095064;28;20035;-75
2021/05/09 02:24:51;;;;;;;1.95;1.40;;;11.20;51.40;;;;;;5095202;28;20028;-74
2021/05/09 02:27:16;;;;;;;2.30;1.63;;;11.20;51.20;;;;;;5093872;28;20024;-74
2021/05/09 02:29:42;;;;;;;2.40;1.73;;;11.20;51.00;;;;;;5097968;27;20055;-74
2021/05/09 02:32:08;;;;;;;4.18;2.15;;;11.20;51.20;;;;;;5107892;28;20024;-74
2021/05/09 02:34:35;;;;;;;6.63;2.03;;;11.20;51.50;;;;;;5106841;28;20092;-75
2021/05/09 02:37:02;;;;;;;8.73;1.98;;;11.20;51.40;;;;;;5104646;27;20024;-75
2021/05/09 02:39:28;;;;;;;5.82;1.83;;;11.20;51.40;;;;;;5116275;27;20027;-74
2021/05/09 02:41:54;;;;;;;2.80;1.35;;;11.20;51.80;;;;;;5114613;28;20027;-75
2021/05/09 02:44:20;;;;;;;2.50;1.50;;;11.20;51.60;;;;;;5114984;28;20459;-75
2021/05/09 02:46:45;;;;;;;2.97;1.50;;;11.20;51.40;;;;;;5111891;28;21290;-75
2021/05/09 02:49:11;;;;;;;1.58;1.30;;;11.30;51.30;;;;;;5104456;28;20024;-74
2021/05/09 02:51:37;;;;;;;3.72;1.33;;;11.30;51.00;;;;;;5114541;28;20513;-75
2021/05/09 02:54:03;;;;;;;2.30;1.13;;;11.30;50.80;;;;;;5111916;28;20024;-75
2021/05/09 02:56:29;;;;;;;2.08;1.48;;;11.30;50.70;;;;;;5098022;28;20099;-74
2021/05/09 02:58:55;;;;;;;2.17;1.35;;;11.30;50.90;;;;;;5112861;28;20162;-74
2021/05/09 03:01:21;;;;;;;6.65;1.50;;;11.30;50.90;;;;;;5114928;28;20024;-75
2021/05/09 03:03:47;;;;;;;3.45;1.60;;;11.30;51.00;;;;;;5114846;28;20027;-75
2021/05/09 03:06:12;;;;;;;3.22;1.63;;;11.30;51.10;;;;;;5114783;28;20116;-75
2021/05/09 03:08:38;;;;;;;2.45;1.35;;;11.30;51.00;;;;;;5114788;28;20024;-75
2021/05/09 03:11:04;;;;;;;1.67;1.08;;;11.30;51.00;;;;;;5114445;28;20034;-74
2021/05/09 03:13:30;;;;;;;2.72;1.38;;;11.30;50.90;;;;;;5113708;28;20104;-75
2021/05/09 03:15:58;;;;;;;4.25;1.50;;;11.30;50.90;;;;;;5117634;27;20118;-74
2021/05/09 03:18:24;;;;;;;2.55;1.20;;;11.30;51.10;;;;;;5133278;27;20436;-74
2021/05/09 03:20:49;;;;;;;6.43;1.17;;;11.30;51.00;;;;;;5116621;27;20047;-74
2021/05/09 03:23:18;;;;;;;5.80;1.50;;;11.30;51.10;;;;;;5116264;27;20023;-75
2021/05/09 03:25:44;;;;;;;1.52;1.17;;;11.20;51.00;;;;;;5134931;27;20015;-74
2021/05/09 03:28:10;;;;;;;6.78;1.80;;;11.20;50.90;;;;;;5134647;27;20484;-74
2021/05/09 03:30:36;;;;;;;3.13;2.28;;;11.20;51.20;;;;;;5134571;27;20027;-74
2021/05/09 03:33:02;;;;;;;2.72;1.67;;;11.20;51.40;;;;;;5116271;27;20411;-74
2021/05/09 03:35:27;;;;;;;2.40;1.55;;;11.20;51.20;;;;;;5134725;27;20054;-74
2021/05/09 03:37:53;;;;;;;2.78;1.73;;;11.10;51.20;;;;;;5115687;27;20051;-75
2021/05/09 03:40:19;;;;;;;4.20;1.45;;;11.10;51.20;;;;;;5134284;27;20031;-74
2021/05/09 03:42:45;;;;;;;1.90;1.33;;;11.10;51.10;;;;;;5116066;27;20516;-74
2021/05/09 03:45:11;;;;;;;3.53;1.65;;;11.10;51.10;;;;;;5134478;27;20035;-74
2021/05/09 03:47:38;;;;;;;3.50;2.03;;;11.00;51.10;;;;;;5116034;27;20031;-75
2021/05/09 03:50:05;;;;;;;4.10;2.15;;;11.00;51.30;;;;;;5134493;27;20021;-74
2021/05/09 03:52:30;;;;;;;3.10;2.33;;;11.00;51.50;;;;;;5134391;27;20485;-75
2021/05/09 03:54:57;;;;;;;15.77;5.75;;;11.00;51.60;;;;;;5134032;27;20059;-74
2021/05/09 03:57:23;;;;;;;9.88;4.35;;;11.00;51.70;;;;;;5134164;27;20135;-74
2021/05/09 03:59:49;;;;;;;7.18;2.25;;;11.00;51.50;;;;;;5134191;27;20098;-74
2021/05/09 04:02:15;;;;;;;3.10;1.90;;;11.00;51.80;;;;;;5134256;27;20057;-74
2021/05/09 04:04:41;;;;;;;3.08;1.30;;;11.00;51.70;;;;;;5115908;27;20023;-75
2021/05/09 04:07:07;;;;;;;2.17;1.50;;;11.00;51.70;;;;;;5134089;27;20031;-74
2021/05/09 04:09:32;;;;;;;3.28;1.90;;;11.00;51.70;;;;;;5120068;27;20039;-74
2021/05/09 04:11:58;;;;;;;1.73;1.15;;;11.00;51.70;;;;;;5130299;27;20436;-74
2021/05/09 04:14:24;;;;;;;3.30;2.20;;;11.00;51.70;;;;;;5133869;27;20030;-74
2021/05/09 04:16:50;;;;;;;3.67;2.03;;;11.00;51.80;;;;;;5133855;27;20404;-75
2021/05/09 04:19:15;;;;;;;9.27;3.30;;;11.00;51.80;;;;;;5134009;27;20019;-74
2021/05/09 04:21:41;;;;;;;9.00;3.22;;;11.00;52.20;;;;;;5134024;27;20379;-74
2021/05/09 04:24:08;;;;;;;4.90;2.42;;;10.90;52.30;;;;;;5133498;27;20020;-74
2021/05/09 04:26:34;;;;;;;5.03;2.25;;;11.00;52.40;;;;;;5133766;27;20480;-75
2021/05/09 04:29:00;;;;;;;3.45;1.67;;;11.00;52.30;;;;;;5133991;27;20445;-74
2021/05/09 04:31:26;;;;;;;2.47;1.33;;;11.00;52.20;;;;;;5120049;28;20106;-74
2021/05/09 04:33:51;;;;;;;3.75;1.38;;;11.00;52.20;;;;;;5113261;28;20110;-74
2021/05/09 04:36:17;;;;;;;5.53;2.00;;;11.00;52.00;;;;;;5113862;28;20019;-75
2021/05/09 04:38:43;;;;;;;7.10;1.63;;;11.00;52.50;;;;;;5123332;28;20167;-74
2021/05/09 04:41:09;;;;;;;2.90;1.83;;;11.10;52.50;;;;;;5112140;28;20376;-74
2021/05/09 04:43:36;;;;;;;4.75;1.90;;;11.10;52.50;;;;;;5133404;28;20089;-74
2021/05/09 04:46:02;;;;;;;2.72;1.58;;;11.10;52.50;;;;;;5133365;28;20403;-75
2021/05/09 04:48:27;;;;;;;3.45;1.48;;;11.20;52.50;;;;;;5133789;28;20038;-75
2021/05/09 04:50:53;;;;;;;5.03;1.77;;;11.30;52.60;;;;;;5132926;28;20387;-75
2021/05/09 04:53:22;;;;;;;2.70;1.75;;;11.30;52.70;;;;;;5133396;28;20038;-75
2021/05/09 04:55:47;;;;;;;4.60;1.88;;;11.40;52.80;;;;;;5133578;28;20363;-75
2021/05/09 04:58:13;;;;;;;2.40;1.70;;;11.40;52.80;;;;;;5133680;28;20030;-75
2021/05/09 05:00:39;;;;;;;5.22;2.03;;;11.50;52.90;;;;;;5115275;28;20106;-75
2021/05/09 05:03:05;;;;;;;2.40;1.92;;;11.60;53.00;;;;;;5133398;28;20026;-75
2021/05/09 05:05:30;;;;;;;7.22;2.35;;;11.70;53.00;;;;;;5133554;28;20028;-74
2021/05/09 05:07:56;;;;;;;2.72;1.90;;;11.70;53.00;;;;;;5114676;28;20015;-75
2021/05/09 05:10:22;;;;;;;4.68;2.10;;;11.80;53.00;;;;;;5117883;28;20100;-75
2021/05/09 05:12:47;;;;;;;3.03;1.90;;;11.90;53.00;;;;;;5132831;28;20094;-74
2021/05/09 05:15:13;;;;;;;3.67;1.90;;;11.90;52.90;;;;;;5133385;28;20027;-75
2021/05/09 05:17:39;;;;;;;3.85;2.25;;;12.00;53.50;;;;;;5133255;28;20465;-75
2021/05/09 05:20:05;;;;;;;3.38;2.42;;;12.10;52.80;;;;;;5116226;27;20031;-75
2021/05/09 05:22:31;;;;;;;5.50;2.22;;;12.20;52.80;;;;;;5137369;27;20026;-75
2021/05/09 05:24:57;;;;;;;2.88;2.10;;;12.20;52.60;;;;;;5118869;27;20031;-75
2021/05/09 05:27:22;;;;;;;3.70;2.05;;;12.30;52.50;;;;;;5137347;27;20027;-74
2021/05/09 05:29:48;;;;;;;2.95;1.80;;;12.40;52.60;;;;;;5137203;27;20476;-75
2021/05/09 05:32:14;;;;;;;2.75;2.00;;;12.50;52.60;;;;;;5136672;27;20027;-76
2021/05/09 05:34:39;;;;;;;3.58;2.20;;;12.50;52.50;;;;;;5136896;27;20027;-74
2021/05/09 05:37:05;;;;;;;3.65;2.17;;;12.60;52.50;;;;;;5118587;27;20023;-75
2021/05/09 05:39:31;;;;;;;3.28;2.20;;;12.70;52.40;;;;;;5122020;27;20030;-75
2021/05/09 05:41:58;;;;;;;4.47;2.40;;;12.70;52.20;;;;;;5114002;27;20023;-75
2021/05/09 05:44:24;;;;;;;5.53;3.25;;;12.80;52.00;;;;;;5118293;27;20031;-74
2021/05/09 05:46:49;;;;;;;11.07;4.65;;;12.90;51.80;;;;;;5136865;27;20027;-75
2021/05/09 05:49:15;;;;;;;8.50;3.90;;;13.00;51.60;;;;;;5136544;27;20031;-75
2021/05/09 05:51:41;;;;;;;10.68;4.85;;;13.00;52.00;;;;;;5136778;27;20019;-75
2021/05/09 05:54:06;;;;;;;13.75;6.00;;;13.10;51.30;;;;;;5136252;27;20035;-74
2021/05/09 05:56:32;;;;;;;11.40;5.82;;;13.20;51.10;;;;;;5136824;27;20022;-75
2021/05/09 05:58:58;;;;;;;11.05;5.28;;;13.30;50.80;;;;;;5136682;27;20021;-75
2021/05/09 06:01:23;;;;;;;7.47;4.75;;;13.30;50.70;;;;;;5136627;27;20023;-75
2021/05/09 06:03:49;;;;;;;10.20;5.22;;;13.40;50.60;;;;;;5136618;27;20023;-75
2021/05/09 06:06:15;;;;;;;10.45;4.82;;;13.50;50.40;;;;;;5136513;27;20027;-75
2021/05/09 06:08:42;;;;;;;12.75;4.63;;;13.60;50.30;;;;;;5116501;27;20027;-75
2021/05/09 06:11:08;;;;;;;8.45;4.55;;;13.70;50.20;;;;;;5116200;27;20020;-75
2021/05/09 06:13:33;;;;;;;7.75;5.10;;;13.80;50.10;;;;;;5123183;27;20060;-75
2021/05/09 06:15:59;;;;;;;10.68;6.68;;;13.90;50.00;;;;;;5135834;27;20038;-75
2021/05/09 06:18:25;;;;;;;19.35;8.02;;;13.90;49.50;;;;;;5117443;27;20027;-75
2021/05/09 06:20:51;;;;;;;12.05;7.88;;;14.00;49.10;;;;;;5135871;27;20088;-75
2021/05/09 06:23:24;;;;;;;14.77;7.13;;;14.10;48.80;;;;;;5136262;27;20027;-75
2021/05/09 06:25:51;;;;;;;11.68;6.30;;;14.20;48.50;;;;;;5136068;27;20020;-75
2021/05/09 06:28:16;;;;;;;12.15;6.22;;;14.30;48.40;;;;;;5133821;27;20015;-75
2021/05/09 06:30:43;;;;;;;10.88;6.15;;;14.40;48.20;;;;;;5135258;27;20531;-75
2021/05/09 06:33:10;;;;;;;10.75;6.20;;;14.50;48.00;;;;;;5135516;27;20022;-75
2021/05/09 06:35:38;;;;;;;10.45;5.80;;;14.50;47.80;;;;;;5135909;27;20407;-75
2021/05/09 06:38:07;;;;;;;9.20;5.43;;;14.70;47.90;;;;;;5135731;27;20019;-75
2021/05/09 06:40:33;;;;;;;10.15;5.15;;;14.70;47.90;;;;;;5130936;27;20098;-75
2021/05/09 06:43:01;;;;;;;8.73;5.32;;;14.80;47.90;;;;;;5115166;28;20020;-75
2021/05/09 06:45:28;;;;;;;8.85;4.90;;;14.90;47.80;;;;;;5130514;27;20027;-75
2021/05/09 06:47:58;;;;;;;7.47;5.25;;;15.00;47.70;;;;;;5134911;27;20676;-75
2021/05/09 06:50:26;;;;;;;7.72;4.88;;;15.10;47.60;;;;;;5135630;27;20110;-75
2021/05/09 06:52:52;;;;;;;8.45;5.88;;;15.20;47.40;;;;;;5135423;27;20015;-75
2021/05/09 06:55:19;;;;;;;21.48;8.90;;;15.30;47.20;;;;;;5135435;27;20492;-75
2021/05/09 06:57:47;;;;;;;25.05;10.18;;;15.40;46.90;;;;;;5116981;27;20097;-75
2021/05/09 07:00:14;;;;;;;19.10;9.32;;;15.50;46.60;;;;;;5135551;27;20029;-75
2021/05/09 07:02:41;;;;;;;32.10;11.50;;;15.60;46.40;;;;;;5116991;27;20106;-75
2021/05/09 07:05:07;;;;;;;29.60;12.75;;;15.70;45.90;;;;;;5116864;27;20366;-76
2021/05/09 07:08:03;;;;;;;35.08;13.77;;;15.80;45.80;;;;;;5116435;27;20552;-75
2021/05/09 07:10:33;;;;;;;28.48;11.52;;;15.90;45.40;;;;;;5121516;27;20365;-75
2021/05/09 07:12:59;;;;;;;27.73;10.52;;;16.00;45.00;;;;;;5115253;28;20020;-75
2021/05/09 07:15:36;;;;;;;25.20;9.50;;;16.10;44.30;;;;;;5131483;27;20449;-75
2021/05/09 07:18:19;;;;;;;18.65;7.63;;;16.20;44.40;;;;;;5134897;27;20491;-75
2021/05/09 07:20:46;;;;;;;13.48;6.28;;;16.30;44.10;;;;;;5135196;27;20020;-75
2021/05/09 07:23:15;;;;;;;8.75;4.90;;;16.50;43.70;;;;;;5135017;27;20141;-75
2021/05/09 07:25:41;;;;;;;9.30;4.20;;;16.60;43.50;;;;;;5134723;27;20042;-75
2021/05/09 07:28:12;;;;;;;8.05;4.70;;;16.70;43.40;;;;;;5097663;28;20466;-76
2021/05/09 07:30:39;;;;;;;9.77;4.47;;;16.70;42.90;;;;;;5131354;27;20042;-75
2021/05/09 07:33:07;;;;;;;11.43;4.70;;;16.90;42.50;;;;;;5116173;27;20027;-75
2021/05/09 07:35:33;;;;;;;8.52;4.05;;;17.00;42.50;;;;;;5134885;27;20027;-75
2021/05/09 07:38:06;;;;;;;5.93;3.85;;;17.10;42.80;;;;;;5134409;27;20019;-74
2021/05/09 07:40:33;;;;;;;7.70;3.45;;;17.20;42.50;;;;;;5115775;27;20027;-75
2021/05/09 07:42:59;;;;;;;6.85;2.92;;;17.30;42.10;;;;;;5115741;27;20032;-75
2021/05/09 07:45:25;;;;;;;10.23;3.17;;;17.40;42.00;;;;;;5116580;27;20038;-76
2021/05/09 07:47:51;;;;;;;4.60;2.85;;;17.50;41.70;;;;;;5128888;27;20364;-75
2021/05/09 07:50:18;;;;;;;3.03;1.60;;;17.60;41.50;;;;;;5134223;27;20019;-75
2021/05/09 07:52:49;;;;;;;3.55;2.10;;;17.80;40.90;;;;;;5134396;27;20102;-76
2021/05/09 07:55:15;;;;;;;2.70;2.28;;;17.90;40.40;;;;;;5133979;27;20030;-75
2021/05/09 07:57:42;;;;;;;4.03;2.58;;;17.90;40.50;;;;;;5115749;27;20022;-76
2021/05/09 08:00:13;;;;;;;4.70;2.30;;;18.10;40.90;;;;;;5134427;27;20023;-76
2021/05/09 08:02:44;;;;;;;2.80;1.80;;;18.10;40.90;;;;;;5134118;27;20019;-76
2021/05/09 08:05:11;;;;;;;4.53;2.13;;;18.20;40.40;;;;;;5134326;27;20029;-76
2021/05/09 08:07:51;;;;;;;2.33;1.70;;;18.40;40.20;;;;;;5133661;27;20031;-75
2021/05/09 08:10:17;;;;;;;4.70;2.00;;;18.40;39.60;;;;;;5132336;27;20027;-76
2021/05/09 08:12:43;;;;;;;2.58;1.67;;;18.50;39.60;;;;;;5115419;27;20019;-76
2021/05/09 08:15:09;;;;;;;4.20;1.40;;;18.60;39.40;;;;;;5115421;27;20476;-76
2021/05/09 08:17:35;;;;;;;2.35;1.25;;;18.70;38.70;;;;;;5134468;27;20047;-75
2021/05/09 08:20:02;;;;;;;1.80;1.40;;;18.80;38.90;;;;;;5134730;27;20520;-75
2021/05/09 08:22:27;;;;;;;5.78;2.90;;;18.90;38.80;;;;;;5134538;27;20015;-76
2021/05/09 08:24:53;;;;;;;2.58;1.55;;;19.00;38.60;;;;;;5133647;27;20391;-74
2021/05/09 08:27:19;;;;;;;1.65;1.27;;;19.10;38.60;;;;;;5132375;27;20043;-76
2021/05/09 08:29:44;;;;;;;1.30;0.90;;;19.20;38.40;;;;;;5115211;28;20027;-76
2021/05/09 08:32:10;;;;;;;2.47;1.20;;;19.30;38.10;;;;;;5133757;27;20031;-74
2021/05/09 08:34:36;;;;;;;1.90;1.10;;;19.30;38.40;;;;;;5133794;27;20016;-75
2021/05/09 08:37:01;;;;;;;1.42;0.90;;;19.40;38.30;;;;;;5129933;28;20023;-75
2021/05/09 08:39:27;;;;;;;2.05;1.15;;;19.50;38.00;;;;;;5124604;28;20095;-76
2021/05/09 08:41:53;;;;;;;1.80;1.15;;;19.60;36.70;;;;;;5119164;28;20029;-75
2021/05/09 08:44:19;;;;;;;2.22;1.00;;;19.70;37.30;;;;;;5133717;28;20023;-75
2021/05/09 08:46:46;;;;;;;1.40;0.90;;;19.70;36.70;;;;;;5133705;28;20030;-76
2021/05/09 08:49:15;;;;;;;1.33;1.00;;;19.80;37.10;;;;;;5133582;28;20015;-75
2021/05/09 08:51:41;;;;;;;2.65;0.80;;;19.90;36.90;;;;;;5133705;28;20019;-75
2021/05/09 08:54:07;;;;;;;2.70;1.38;;;20.00;36.90;;;;;;5133565;27;20022;-75
2021/05/09 08:56:34;;;;;;;1.67;1.00;;;20.00;35.70;;;;;;5137819;27;20068;-75
2021/05/09 08:59:00;;;;;;;0.82;0.80;;;20.10;36.30;;;;;;5137831;27;20027;-76
2021/05/09 09:01:31;;;;;;;6.72;1.45;;;20.10;36.30;;;;;;5137712;27;20015;-75
2021/05/09 09:03:56;;;;;;;2.00;0.90;;;20.20;36.40;;;;;;5119160;27;20153;-75
2021/05/09 09:06:44;;;;;;;1.63;1.05;;;20.30;35.90;;;;;;5124282;27;20114;-75
2021/05/09 09:09:25;;;;;;;1.25;0.82;;;20.40;35.70;;;;;;5137628;27;20433;-75
2021/05/09 09:12:03;;;;;;;2.25;1.00;;;20.40;36.20;;;;;;5136706;27;20114;-75
2021/05/09 09:14:28;;;;;;;1.42;1.10;;;20.50;36.10;;;;;;5118993;27;20063;-76
2021/05/09 09:17:14;;;;;;;1.08;0.93;;;20.60;35.80;;;;;;5137251;27;20077;-75
2021/05/09 09:20:02;;;;;;;1.75;0.80;;;20.70;35.30;;;;;;5137340;27;20050;-76
2021/05/09 09:22:48;;;;;;;1.42;1.23;;;20.80;35.00;;;;;;5137319;27;20019;-75
2021/05/09 09:25:14;;;;;;;1.60;1.20;;;20.90;34.90;;;;;;5116531;28;20023;-75
2021/05/09 09:27:48;;;;;;;2.78;1.98;;;20.90;34.80;;;;;;5130423;27;20401;-75
2021/05/09 09:30:15;;;;;;;2.38;1.27;;;21.00;34.60;;;;;;5118762;27;20031;-76
2021/05/09 09:32:41;;;;;;;1.52;1.33;;;21.10;34.60;;;;;;5136907;27;20062;-75
2021/05/09 09:35:30;;;;;;;1.85;0.90;;;21.20;35.30;;;;;;5136946;27;20051;-76
2021/05/09 09:37:56;;;;;;;1.20;0.80;;;21.30;34.40;;;;;;5123579;27;20036;-74
2021/05/09 09:40:22;;;;;;;1.25;0.80;;;21.40;34.20;;;;;;5134588;27;20095;-76
2021/05/09 09:42:49;;;;;;;1.48;1.10;;;21.50;34.40;;;;;;5116256;28;20495;-76
2021/05/09 09:45:28;;;;;;;1.48;1.00;;;21.60;34.80;;;;;;5116325;28;20035;-75
2021/05/09 09:48:02;;;;;;;2.92;1.00;;;21.70;34.40;;;;;;5107752;27;20131;-74
2021/05/09 09:50:42;;;;;;;1.58;0.98;;;21.70;34.30;;;;;;5136843;27;20019;-75
2021/05/09 09:53:26;;;;;;;5.30;1.20;;;21.80;33.40;;;;;;5136719;27;20113;-76
2021/05/09 09:56:21;;;;;;;1.35;1.00;;;21.90;33.80;;;;;;5136745;27;20030;-76
2021/05/09 09:59:04;;;;;;;3.95;1.25;;;22.00;34.10;;;;;;5136476;27;20098;-75
2021/05/09 10:01:36;;;;;;;1.40;0.95;;;22.10;33.70;;;;;;5129773;27;20430;-75
2021/05/09 10:04:07;;;;;;;1.92;0.80;;;22.20;33.70;;;;;;5128137;27;20033;-75
2021/05/09 10:06:34;;;;;;;1.27;0.80;;;22.20;33.30;;;;;;5106331;27;20464;-75
2021/05/09 10:09:00;;;;;;;1.95;0.80;;;22.30;33.00;;;;;;5117915;27;20031;-75
2021/05/09 10:11:29;;;;;;;1.20;1.00;;;22.40;32.30;;;;;;5113623;27;20156;-76
2021/05/09 10:13:56;;;;;;;2.67;1.00;;;22.50;32.40;;;;;;5136269;27;20050;-75
2021/05/09 10:16:24;;;;;;;2.25;1.15;;;22.50;32.00;;;;;;5117328;27;20043;-75
2021/05/09 10:18:54;;;;;;;1.75;0.68;;;22.60;32.00;;;;;;5120062;27;20054;-76
2021/05/09 10:21:29;;;;;;;2.50;1.10;;;22.70;32.50;;;;;;5136203;27;20071;-75
2021/05/09 10:24:18;;;;;;;2.10;0.90;;;22.80;32.10;;;;;;5136186;27;20034;-74
2021/05/09 10:27:09;;;;;;;1.42;0.85;;;22.90;32.10;;;;;;5135759;27;20033;-75
2021/05/09 10:29:36;;;;;;;1.50;1.00;;;22.90;32.30;;;;;;5119027;27;20035;-76
2021/05/09 10:32:22;;;;;;;3.17;1.38;;;23.00;32.00;;;;;;5121216;27;20022;-76
2021/05/09 10:34:57;;;;;;;1.50;0.93;;;23.10;32.30;;;;;;5121397;27;20038;-75
2021/05/09 10:40:33;;;;;;;12.68;8.60;;;23.30;31.50;;;;;;5135455;27;20034;-76
2021/05/09 10:43:02;;;;;;;74.75;43.90;;;23.40;32.50;;;;;;5121693;27;20031;-75
2021/05/09 10:45:52;;;;;;;13.63;9.10;;;23.50;31.70;;;;;;5135401;27;20028;-76
2021/05/09 10:48:22;;;;;;;22.58;15.93;;;23.50;31.10;;;;;;5135677;27;20418;-75
2021/05/09 10:51:05;;;;;;;6.63;4.90;;;23.60;31.30;;;;;;5132825;27;20024;-76
2021/05/09 10:53:34;;;;;;;3.40;2.10;;;23.70;31.70;;;;;;5128073;27;20035;-75
2021/05/09 10:56:05;;;;;;;2.08;1.48;;;23.80;31.80;;;;;;5135059;27;20156;-76
2021/05/09 10:58:48;;;;;;;2.78;2.28;;;23.90;32.00;;;;;;5130611;27;20102;-76
2021/05/09 11:01:14;;;;;;;1.60;1.30;;;24.00;31.70;;;;;;5116855;27;20051;-76
2021/05/09 11:03:40;;;;;;;2.67;2.10;;;24.00;31.80;;;;;;5135158;27;20102;-76
2021/05/09 11:06:26;;;;;;;2.30;1.42;;;24.10;31.50;;;;;;5134182;27;20062;-75
2021/05/09 11:08:56;;;;;;;2.38;1.23;;;24.10;31.40;;;;;;5114452;28;20061;-75
2021/05/09 11:11:30;;;;;;;2.80;1.38;;;24.20;31.30;;;;;;5114345;28;20117;-74
2021/05/09 11:14:03;;;;;;;2.13;1.33;;;24.30;30.40;;;;;;5114502;28;20020;-75
2021/05/09 11:16:30;;;;;;;1.52;0.90;;;24.40;30.50;;;;;;5114390;28;20392;-75
2021/05/09 11:19:08;;;;;;;1.02;0.80;;;24.40;30.90;;;;;;5113885;28;20387;-75
2021/05/09 11:21:47;;;;;;;1.63;0.98;;;24.50;30.80;;;;;;5122950;27;20102;-76
2021/05/09 11:24:20;;;;;;;3.83;2.47;;;24.60;31.30;;;;;;5135054;27;20388;-75
2021/05/09 11:26:51;;;;;;;5.03;2.80;;;24.60;30.70;;;;;;5134944;27;20110;-75
2021/05/09 11:29:23;;;;;;;3.25;2.03;;;24.60;30.80;;;;;;5134945;27;20031;-75
2021/05/09 11:31:51;;;;;;;2.20;1.13;;;24.70;30.80;;;;;;5134801;27;20026;-75
2021/05/09 11:34:20;;;;;;;3.35;1.73;;;24.70;30.70;;;;;;5134544;27;20535;-75
2021/05/09 11:36:48;;;;;;;3.25;1.58;;;24.90;31.00;;;;;;5134625;27;20480;-75
2021/05/09 11:39:47;;;;;;;2.42;1.27;;;24.90;31.10;;;;;;5134585;27;20027;-74
2021/05/09 11:42:17;;;;;;;1.17;0.82;;;25.00;29.80;;;;;;5129354;27;20114;-76
2021/05/09 11:44:57;;;;;;;1.77;1.20;;;25.10;29.30;;;;;;5134524;27;20019;-75
2021/05/09 11:47:31;;;;;;;1.58;0.90;;;25.10;29.20;;;;;;5134478;27;20023;-75
2021/05/09 11:50:09;;;;;;;1.77;0.80;;;25.30;29.30;;;;;;5134472;27;20376;-75
2021/05/09 11:52:40;;;;;;;1.20;0.93;;;25.30;28.40;;;;;;5099226;28;20028;-76
2021/05/09 11:55:10;;;;;;;1.73;1.00;;;25.40;27.70;;;;;;5113734;28;20027;-75
2021/05/09 11:57:36;;;;;;;2.13;0.85;;;25.50;28.20;;;;;;5113921;28;20468;-75
2021/05/09 12:00:10;;;;;;;1.50;0.80;;;25.60;27.80;;;;;;5113822;28;20092;-75
2021/05/09 12:02:40;;;;;;;;;;;25.60;26.30;;;;;;5114054;28;20479;-74
2021/05/09 12:05:10;;;;;;;2.28;0.80;;;25.80;28.50;;;;;;5113682;28;19908;-75
2021/05/09 12:08:00;;;;;;;1.40;0.80;;;25.90;26.60;;;;;;5113591;28;20051;-76
2021/05/09 12:10:27;;;;;;;0.93;0.70;;;26.00;26.80;;;;;;5113645;28;20032;-76
2021/05/09 12:13:07;;;;;;;0.90;0.60;;;26.10;26.40;;;;;;5113583;28;20103;-75
2021/05/09 12:15:38;;;;;;;1.67;0.82;;;26.20;26.00;;;;;;5113078;28;20035;-76
2021/05/09 12:18:05;;;;;;;6.05;1.42;;;26.20;25.90;;;;;;5071668;28;20043;-76
2021/05/09 12:20:37;;;;;;;1.45;0.75;;;26.30;26.50;;;;;;5071538;28;20017;-76
2021/05/09 12:23:25;;;;;;;2.25;0.90;;;26.30;26.50;;;;;;5091486;28;20031;-75
2021/05/09 12:25:52;;;;;;;1.15;0.85;;;26.40;26.90;;;;;;5093150;28;20027;-76
2021/05/09 12:28:19;;;;;;;1.23;0.82;;;26.50;26.30;;;;;;5093073;28;20016;-76
2021/05/09 12:30:50;;;;;;;3.35;1.23;;;26.50;26.20;;;;;;5093070;28;20035;-76
2021/05/09 12:33:28;;;;;;;2.75;0.80;;;26.60;25.60;;;;;;5091526;28;20034;-75
2021/05/09 12:35:55;;;;;;;2.35;0.80;;;26.60;23.90;;;;;;5091629;28;20056;-75
2021/05/09 12:38:33;;;;;;;6.05;0.75;;;26.70;24.00;;;;;;5091651;28;20475;-75
2021/05/09 12:41:13;;;;;;;2.33;0.80;;;26.80;23.20;;;;;;5092917;28;20517;-76
2021/05/09 12:43:43;;;;;;;1.85;0.82;;;26.80;23.30;;;;;;5092779;28;20035;-76
2021/05/09 12:46:09;;;;;;;0.60;0.60;;;26.90;23.50;;;;;;5092760;28;20084;-75
2021/05/09 12:48:35;;;;;;;1.02;0.85;;;27.00;24.10;;;;;;5108545;28;20460;-76
2021/05/09 12:51:07;;;;;;;0.90;0.70;;;27.10;24.60;;;;;;5092447;28;20106;-75
2021/05/09 12:53:40;;;;;;;1.77;0.90;;;27.20;25.10;;;;;;5092750;28;20393;-76
2021/05/09 12:56:25;;;;;;;1.80;0.80;;;27.20;24.50;;;;;;5092821;28;20020;-76